sensor_id;sensor_type;location;lat;lon;timestamp;temperature;humidity
2463;DHT22;1243;54.298;10.172;2023-04-25T00:02:21;7.40;1.00
2463;DHT22;1243;54.298;10.172;2023-04-25T00:04:47;7.40;1.00
2463;DHT22;1243;54.298;10.172;2023-04-25T00:07:15;7.30;1.00
2463;DHT22;1243;54.298;10.172;2023-04-25T00:09:41;7.30;1.00
2463;DHT22;1243;54.298;10.172;2023-04-25T00:12:07;7.40;1.00
2463;DHT22;1243;54.298;10.172;2023-04-25T00:14:33;7.40;1.00
2463;DHT22;1243;54.298;10.172;2023-04-25T00:17:01;7.40;1.00
2463;DHT22;1243;54.298;10.172;2023-04-25T00:19:28;7.40;1.00
2463;DHT22;1243;54.298;10.172;2023-04-25T00:21:56;7.40;1.00
2463;DHT22;1243;54.298;10.172;2023-04-25T00:24:22;7.40;1.00
2463;DHT22;1243;54.298;10.172;2023-04-25T00:26:48;7.40;1.00
2463;DHT22;1243;54.298;10.172;2023-04-25T00:29:14;7.30;1.00
2463;DHT22;1243;54.298;10.172;2023-04-25T00:31:40;7.30;1.00
2463;DHT22;1243;54.298;10.172;2023-04-25T00:34:06;7.30;1.00
2463;DHT22;1243;54.298;10.172;2023-04-25T00:36:32;7.30;1.00
2463;DHT22;1243;54.298;10.172;2023-04-25T00:38:58;7.30;1.00
2463;DHT22;1243;54.298;10.172;2023-04-25T00:41:25;7.30;1.00
2463;DHT22;1243;54.298;10.172;2023-04-25T00:43:53;7.30;1.00
2463;DHT22;1243;54.298;10.172;2023-04-25T00:46:19;7.30;1.00
2463;DHT22;1243;54.298;10.172;2023-04-25T00:48:45;7.30;1.00
2463;DHT22;1243;54.298;10.172;2023-04-25T00:51:16;7.20;1.00
2463;DHT22;1243;54.298;10.172;2023-04-25T00:53:42;7.20;1.00
2463;DHT22;1243;54.298;10.172;2023-04-25T00:56:08;7.10;1.00
2463;DHT22;1243;54.298;10.172;2023-04-25T00:58:33;7.10;1.00
2463;DHT22;1243;54.298;10.172;2023-04-25T01:01:01;7.10;1.00
2463;DHT22;1243;54.298;10.172;2023-04-25T01:03:26;7.00;1.00
2463;DHT22;1243;54.298;10.172;2023-04-25T01:05:54;7.00;1.00
2463;DHT22;1243;54.298;10.172;2023-04-25T01:08:22;7.00;1.00
2463;DHT22;1243;54.298;10.172;2023-04-25T01:10:48;7.00;1.00
2463;DHT22;1243;54.298;10.172;2023-04-25T01:13:14;7.00;1.00
2463;DHT22;1243;54.298;10.172;2023-04-25T01:15:40;7.00;1.00
2463;DHT22;1243;54.298;10.172;2023-04-25T01:18:06;7.00;1.00
2463;DHT22;1243;54.298;10.172;2023-04-25T01:20:33;7.00;1.00
2463;DHT22;1243;54.298;10.172;2023-04-25T01:23:00;7.00;1.00
2463;DHT22;1243;54.298;10.172;2023-04-25T01:25:26;7.00;1.00
2463;DHT22;1243;54.298;10.172;2023-04-25T01:27:52;7.00;1.00
2463;DHT22;1243;54.298;10.172;2023-04-25T01:33:39;6.90;1.00
2463;DHT22;1243;54.298;10.172;2023-04-25T01:36:06;6.90;1.00
2463;DHT22;1243;54.298;10.172;2023-04-25T01:38:32;6.90;1.00
2463;DHT22;1243;54.298;10.172;2023-04-25T01:40:58;6.90;1.00
2463;DHT22;1243;54.298;10.172;2023-04-25T01:43:24;6.90;1.00
2463;DHT22;1243;54.298;10.172;2023-04-25T01:45:50;6.90;1.00
2463;DHT22;1243;54.298;10.172;2023-04-25T01:48:15;6.90;1.00
2463;DHT22;1243;54.298;10.172;2023-04-25T01:50:41;6.90;1.00
2463;DHT22;1243;54.298;10.172;2023-04-25T01:53:09;6.80;99.90
2463;DHT22;1243;54.298;10.172;2023-04-25T01:55:36;6.70;99.90
2463;DHT22;1243;54.298;10.172;2023-04-25T01:58:03;6.60;99.90
2463;DHT22;1243;54.298;10.172;2023-04-25T02:00:29;6.60;99.90
2463;DHT22;1243;54.298;10.172;2023-04-25T02:02:58;6.50;99.90
2463;DHT22;1243;54.298;10.172;2023-04-25T02:05:23;6.40;99.90
2463;DHT22;1243;54.298;10.172;2023-04-25T02:07:49;6.40;99.90
2463;DHT22;1243;54.298;10.172;2023-04-25T02:13:36;6.30;99.90
2463;DHT22;1243;54.298;10.172;2023-04-25T02:16:02;6.40;99.90
2463;DHT22;1243;54.298;10.172;2023-04-25T02:18:28;6.40;99.90
2463;DHT22;1243;54.298;10.172;2023-04-25T02:20:53;6.40;99.90
2463;DHT22;1243;54.298;10.172;2023-04-25T02:23:19;6.30;99.90
2463;DHT22;1243;54.298;10.172;2023-04-25T02:25:45;6.40;99.90
2463;DHT22;1243;54.298;10.172;2023-04-25T02:28:11;6.30;99.90
2463;DHT22;1243;54.298;10.172;2023-04-25T02:30:37;6.30;99.90
2463;DHT22;1243;54.298;10.172;2023-04-25T02:33:03;6.30;99.90
2463;DHT22;1243;54.298;10.172;2023-04-25T02:35:28;6.20;99.90
2463;DHT22;1243;54.298;10.172;2023-04-25T02:37:54;6.20;99.90
2463;DHT22;1243;54.298;10.172;2023-04-25T02:40:20;6.20;99.90
2463;DHT22;1243;54.298;10.172;2023-04-25T02:42:45;6.20;99.90
2463;DHT22;1243;54.298;10.172;2023-04-25T02:45:11;6.10;99.90
2463;DHT22;1243;54.298;10.172;2023-04-25T02:47:37;6.20;99.90
2463;DHT22;1243;54.298;10.172;2023-04-25T02:50:03;6.30;99.90
2463;DHT22;1243;54.298;10.172;2023-04-25T02:52:29;6.20;99.90
2463;DHT22;1243;54.298;10.172;2023-04-25T02:54:55;6.20;99.90
2463;DHT22;1243;54.298;10.172;2023-04-25T02:57:21;6.30;99.90
2463;DHT22;1243;54.298;10.172;2023-04-25T02:59:46;6.30;99.90
2463;DHT22;1243;54.298;10.172;2023-04-25T03:02:12;6.30;99.90
2463;DHT22;1243;54.298;10.172;2023-04-25T03:04:38;6.30;99.90
2463;DHT22;1243;54.298;10.172;2023-04-25T03:07:04;6.30;99.90
2463;DHT22;1243;54.298;10.172;2023-04-25T03:09:29;6.30;99.90
2463;DHT22;1243;54.298;10.172;2023-04-25T03:12:06;6.30;99.90
2463;DHT22;1243;54.298;10.172;2023-04-25T03:15:31;6.20;99.90
2463;DHT22;1243;54.298;10.172;2023-04-25T03:18:52;6.10;99.90
2463;DHT22;1243;54.298;10.172;2023-04-25T03:26:04;6.10;99.90
2463;DHT22;1243;54.298;10.172;2023-04-25T03:33:31;6.00;99.90
2463;DHT22;1243;54.298;10.172;2023-04-25T03:36:52;6.00;99.90
2463;DHT22;1243;54.298;10.172;2023-04-25T03:46:51;6.10;99.90
2463;DHT22;1243;54.298;10.172;2023-04-25T03:49:17;6.10;99.90
2463;DHT22;1243;54.298;10.172;2023-04-25T03:51:42;6.10;99.90
2463;DHT22;1243;54.298;10.172;2023-04-25T03:54:08;6.10;99.90
2463;DHT22;1243;54.298;10.172;2023-04-25T03:56:34;6.10;99.90
2463;DHT22;1243;54.298;10.172;2023-04-25T03:59:00;6.10;99.90
2463;DHT22;1243;54.298;10.172;2023-04-25T04:01:25;6.10;99.90
2463;DHT22;1243;54.298;10.172;2023-04-25T04:03:51;6.10;98.10
2463;DHT22;1243;54.298;10.172;2023-04-25T04:06:17;6.10;91.10
2463;DHT22;1243;54.298;10.172;2023-04-25T04:08:43;6.10;91.10
2463;DHT22;1243;54.298;10.172;2023-04-25T04:11:09;6.10;91.00
2463;DHT22;1243;54.298;10.172;2023-04-25T04:13:34;6.10;87.10
2463;DHT22;1243;54.298;10.172;2023-04-25T04:16:00;6.20;77.40
2463;DHT22;1243;54.298;10.172;2023-04-25T04:18:28;6.20;69.00
2463;DHT22;1243;54.298;10.172;2023-04-25T04:20:54;6.10;44.50
2463;DHT22;1243;54.298;10.172;2023-04-25T04:23:20;6.10;45.20
2463;DHT22;1243;54.298;10.172;2023-04-25T04:25:46;6.10;33.80
2463;DHT22;1243;54.298;10.172;2023-04-25T04:28:12;6.10;33.60
2463;DHT22;1243;54.298;10.172;2023-04-25T04:30:39;6.10;28.50
2463;DHT22;1243;54.298;10.172;2023-04-25T04:33:04;6.10;24.30
2463;DHT22;1243;54.298;10.172;2023-04-25T04:35:33;6.10;19.90
2463;DHT22;1243;54.298;10.172;2023-04-25T04:37:58;6.10;21.80
2463;DHT22;1243;54.298;10.172;2023-04-25T04:40:24;6.20;21.40
2463;DHT22;1243;54.298;10.172;2023-04-25T04:42:51;6.20;16.40
2463;DHT22;1243;54.298;10.172;2023-04-25T04:45:17;6.20;9.00
2463;DHT22;1243;54.298;10.172;2023-04-25T04:47:45;6.10;1.00
2463;DHT22;1243;54.298;10.172;2023-04-25T04:50:11;6.20;1.00
2463;DHT22;1243;54.298;10.172;2023-04-25T04:52:37;6.20;1.00
2463;DHT22;1243;54.298;10.172;2023-04-25T04:55:04;6.20;1.00
2463;DHT22;1243;54.298;10.172;2023-04-25T04:57:31;6.20;1.00
2463;DHT22;1243;54.298;10.172;2023-04-25T04:59:58;6.30;1.00
2463;DHT22;1243;54.298;10.172;2023-04-25T05:02:24;6.30;1.00
2463;DHT22;1243;54.298;10.172;2023-04-25T05:04:49;6.30;1.00
2463;DHT22;1243;54.298;10.172;2023-04-25T05:07:17;6.30;1.00
2463;DHT22;1243;54.298;10.172;2023-04-25T05:09:42;6.30;1.00
2463;DHT22;1243;54.298;10.172;2023-04-25T05:12:08;6.30;1.00
2463;DHT22;1243;54.298;10.172;2023-04-25T05:14:34;6.40;1.00
2463;DHT22;1243;54.298;10.172;2023-04-25T05:17:00;6.40;1.00
2463;DHT22;1243;54.298;10.172;2023-04-25T05:19:26;6.30;1.00
2463;DHT22;1243;54.298;10.172;2023-04-25T05:21:52;6.30;1.00
2463;DHT22;1243;54.298;10.172;2023-04-25T05:24:17;6.30;1.00
2463;DHT22;1243;54.298;10.172;2023-04-25T05:26:43;6.40;1.00
2463;DHT22;1243;54.298;10.172;2023-04-25T05:29:09;6.40;1.00
2463;DHT22;1243;54.298;10.172;2023-04-25T05:31:36;6.40;1.00
2463;DHT22;1243;54.298;10.172;2023-04-25T05:34:02;6.40;1.00
2463;DHT22;1243;54.298;10.172;2023-04-25T05:36:28;6.40;1.00
2463;DHT22;1243;54.298;10.172;2023-04-25T05:38:53;6.40;1.00
2463;DHT22;1243;54.298;10.172;2023-04-25T05:41:19;6.40;1.00
2463;DHT22;1243;54.298;10.172;2023-04-25T05:43:45;6.50;1.00
2463;DHT22;1243;54.298;10.172;2023-04-25T05:46:12;6.60;1.00
2463;DHT22;1243;54.298;10.172;2023-04-25T05:48:39;6.60;1.00
2463;DHT22;1243;54.298;10.172;2023-04-25T05:51:04;6.50;1.00
2463;DHT22;1243;54.298;10.172;2023-04-25T05:53:30;6.50;1.00
2463;DHT22;1243;54.298;10.172;2023-04-25T05:55:56;6.50;1.00
2463;DHT22;1243;54.298;10.172;2023-04-25T05:58:22;6.60;1.00
2463;DHT22;1243;54.298;10.172;2023-04-25T06:00:47;6.70;1.00
2463;DHT22;1243;54.298;10.172;2023-04-25T06:03:13;6.80;1.00
2463;DHT22;1243;54.298;10.172;2023-04-25T06:05:42;6.80;1.00
2463;DHT22;1243;54.298;10.172;2023-04-25T06:08:09;6.80;1.00
2463;DHT22;1243;54.298;10.172;2023-04-25T06:10:35;6.80;1.00
2463;DHT22;1243;54.298;10.172;2023-04-25T06:13:01;6.80;1.00
2463;DHT22;1243;54.298;10.172;2023-04-25T06:15:27;6.80;1.00
2463;DHT22;1243;54.298;10.172;2023-04-25T06:17:52;6.80;1.00
2463;DHT22;1243;54.298;10.172;2023-04-25T06:20:18;6.90;1.00
2463;DHT22;1243;54.298;10.172;2023-04-25T06:22:48;6.90;1.00
2463;DHT22;1243;54.298;10.172;2023-04-25T06:25:14;7.00;1.00
2463;DHT22;1243;54.298;10.172;2023-04-25T06:27:40;7.00;1.00
2463;DHT22;1243;54.298;10.172;2023-04-25T06:30:06;7.00;1.00
2463;DHT22;1243;54.298;10.172;2023-04-25T06:32:32;7.00;1.00
2463;DHT22;1243;54.298;10.172;2023-04-25T06:34:59;7.00;1.00
2463;DHT22;1243;54.298;10.172;2023-04-25T06:37:25;7.10;1.00
2463;DHT22;1243;54.298;10.172;2023-04-25T06:39:51;7.10;1.00
2463;DHT22;1243;54.298;10.172;2023-04-25T06:42:16;7.20;1.00
2463;DHT22;1243;54.298;10.172;2023-04-25T06:44:42;7.30;1.00
2463;DHT22;1243;54.298;10.172;2023-04-25T06:47:08;7.40;1.00
2463;DHT22;1243;54.298;10.172;2023-04-25T06:49:33;7.40;1.00
2463;DHT22;1243;54.298;10.172;2023-04-25T06:51:59;7.30;1.00
2463;DHT22;1243;54.298;10.172;2023-04-25T06:54:25;7.40;1.00
2463;DHT22;1243;54.298;10.172;2023-04-25T06:56:53;7.30;1.00
2463;DHT22;1243;54.298;10.172;2023-04-25T06:59:19;7.30;1.00
2463;DHT22;1243;54.298;10.172;2023-04-25T07:01:44;7.30;1.00
2463;DHT22;1243;54.298;10.172;2023-04-25T07:04:10;7.30;1.00
2463;DHT22;1243;54.298;10.172;2023-04-25T07:06:36;7.30;1.00
2463;DHT22;1243;54.298;10.172;2023-04-25T07:09:08;7.30;1.00
2463;DHT22;1243;54.298;10.172;2023-04-25T07:11:34;7.40;1.00
2463;DHT22;1243;54.298;10.172;2023-04-25T07:13:59;7.30;1.00
2463;DHT22;1243;54.298;10.172;2023-04-25T07:16:25;7.40;1.00
2463;DHT22;1243;54.298;10.172;2023-04-25T07:18:51;7.40;1.00
2463;DHT22;1243;54.298;10.172;2023-04-25T07:21:16;7.50;1.00
2463;DHT22;1243;54.298;10.172;2023-04-25T07:23:42;7.50;1.00
2463;DHT22;1243;54.298;10.172;2023-04-25T07:26:08;7.60;1.00
2463;DHT22;1243;54.298;10.172;2023-04-25T07:28:33;7.60;1.00
2463;DHT22;1243;54.298;10.172;2023-04-25T07:30:59;7.50;1.00
2463;DHT22;1243;54.298;10.172;2023-04-25T07:33:25;7.40;1.00
2463;DHT22;1243;54.298;10.172;2023-04-25T07:35:50;7.40;1.00
2463;DHT22;1243;54.298;10.172;2023-04-25T07:38:17;7.40;1.00
2463;DHT22;1243;54.298;10.172;2023-04-25T07:40:42;7.50;1.00
2463;DHT22;1243;54.298;10.172;2023-04-25T07:43:08;7.40;1.00
2463;DHT22;1243;54.298;10.172;2023-04-25T07:45:34;7.40;1.00
2463;DHT22;1243;54.298;10.172;2023-04-25T07:47:59;7.40;1.00
2463;DHT22;1243;54.298;10.172;2023-04-25T07:50:25;7.50;1.00
2463;DHT22;1243;54.298;10.172;2023-04-25T07:52:51;7.60;1.00
2463;DHT22;1243;54.298;10.172;2023-04-25T07:55:16;7.70;1.00
2463;DHT22;1243;54.298;10.172;2023-04-25T07:57:42;7.80;1.00
2463;DHT22;1243;54.298;10.172;2023-04-25T08:00:08;7.80;1.00
2463;DHT22;1243;54.298;10.172;2023-04-25T08:02:35;7.90;1.00
2463;DHT22;1243;54.298;10.172;2023-04-25T08:05:02;7.80;1.00
2463;DHT22;1243;54.298;10.172;2023-04-25T08:07:27;8.00;1.00
2463;DHT22;1243;54.298;10.172;2023-04-25T08:09:54;8.20;1.00
2463;DHT22;1243;54.298;10.172;2023-04-25T08:12:20;8.40;1.00
2463;DHT22;1243;54.298;10.172;2023-04-25T08:14:45;8.40;1.00
2463;DHT22;1243;54.298;10.172;2023-04-25T08:17:11;8.40;1.00
2463;DHT22;1243;54.298;10.172;2023-04-25T08:19:37;8.30;1.00
2463;DHT22;1243;54.298;10.172;2023-04-25T08:22:03;8.30;1.00
2463;DHT22;1243;54.298;10.172;2023-04-25T08:24:28;8.20;1.00
2463;DHT22;1243;54.298;10.172;2023-04-25T08:26:54;8.20;1.00
2463;DHT22;1243;54.298;10.172;2023-04-25T08:29:20;8.20;1.00
2463;DHT22;1243;54.298;10.172;2023-04-25T08:31:46;8.20;1.00
2463;DHT22;1243;54.298;10.172;2023-04-25T08:34:12;8.10;1.00
2463;DHT22;1243;54.298;10.172;2023-04-25T08:36:38;8.20;1.00
2463;DHT22;1243;54.298;10.172;2023-04-25T08:39:05;8.30;1.00
2463;DHT22;1243;54.298;10.172;2023-04-25T08:41:31;8.40;1.00
2463;DHT22;1243;54.298;10.172;2023-04-25T08:43:58;8.40;1.00
2463;DHT22;1243;54.298;10.172;2023-04-25T08:46:26;8.50;1.00
2463;DHT22;1243;54.298;10.172;2023-04-25T08:48:53;8.80;1.00
2463;DHT22;1243;54.298;10.172;2023-04-25T08:51:23;8.90;1.00
2463;DHT22;1243;54.298;10.172;2023-04-25T08:53:53;9.00;1.00
2463;DHT22;1243;54.298;10.172;2023-04-25T08:56:19;8.80;1.00
2463;DHT22;1243;54.298;10.172;2023-04-25T08:58:53;8.80;1.00
2463;DHT22;1243;54.298;10.172;2023-04-25T09:01:20;8.80;1.00
2463;DHT22;1243;54.298;10.172;2023-04-25T09:03:46;8.70;1.00
2463;DHT22;1243;54.298;10.172;2023-04-25T09:06:13;8.80;1.00
2463;DHT22;1243;54.298;10.172;2023-04-25T09:08:38;8.80;1.00
2463;DHT22;1243;54.298;10.172;2023-04-25T09:11:06;8.80;1.00
2463;DHT22;1243;54.298;10.172;2023-04-25T09:13:32;8.70;1.00
2463;DHT22;1243;54.298;10.172;2023-04-25T09:15:58;8.70;1.00
2463;DHT22;1243;54.298;10.172;2023-04-25T09:18:26;8.80;1.00
2463;DHT22;1243;54.298;10.172;2023-04-25T09:20:56;8.90;1.00
2463;DHT22;1243;54.298;10.172;2023-04-25T09:23:23;9.10;1.00
2463;DHT22;1243;54.298;10.172;2023-04-25T09:25:53;9.10;1.00
2463;DHT22;1243;54.298;10.172;2023-04-25T09:28:26;9.00;1.00
2463;DHT22;1243;54.298;10.172;2023-04-25T09:30:56;9.00;1.00
2463;DHT22;1243;54.298;10.172;2023-04-25T09:33:30;9.20;1.00
2463;DHT22;1243;54.298;10.172;2023-04-25T09:36:02;9.50;1.00
2463;DHT22;1243;54.298;10.172;2023-04-25T09:38:36;9.70;1.00
2463;DHT22;1243;54.298;10.172;2023-04-25T09:41:05;9.80;1.00
2463;DHT22;1243;54.298;10.172;2023-04-25T09:43:31;9.60;1.00
2463;DHT22;1243;54.298;10.172;2023-04-25T09:45:57;9.60;1.00
2463;DHT22;1243;54.298;10.172;2023-04-25T09:48:26;9.80;1.00
2463;DHT22;1243;54.298;10.172;2023-04-25T09:51:12;9.90;1.00
2463;DHT22;1243;54.298;10.172;2023-04-25T09:53:44;9.90;1.00
2463;DHT22;1243;54.298;10.172;2023-04-25T09:56:12;9.80;1.00
2463;DHT22;1243;54.298;10.172;2023-04-25T09:58:39;9.70;1.00
2463;DHT22;1243;54.298;10.172;2023-04-25T10:01:07;9.70;1.00
2463;DHT22;1243;54.298;10.172;2023-04-25T10:03:37;9.70;1.00
2463;DHT22;1243;54.298;10.172;2023-04-25T10:06:16;9.80;1.00
2463;DHT22;1243;54.298;10.172;2023-04-25T10:08:44;10.00;1.00
2463;DHT22;1243;54.298;10.172;2023-04-25T10:11:11;10.00;1.00
2463;DHT22;1243;54.298;10.172;2023-04-25T10:13:40;9.80;1.00
2463;DHT22;1243;54.298;10.172;2023-04-25T10:16:06;9.60;1.00
2463;DHT22;1243;54.298;10.172;2023-04-25T10:18:32;9.50;1.00
2463;DHT22;1243;54.298;10.172;2023-04-25T10:21:03;9.20;1.00
2463;DHT22;1243;54.298;10.172;2023-04-25T10:23:31;8.80;1.00
2463;DHT22;1243;54.298;10.172;2023-04-25T10:25:57;8.70;1.00
2463;DHT22;1243;54.298;10.172;2023-04-25T10:28:23;8.70;1.00
2463;DHT22;1243;54.298;10.172;2023-04-25T10:31:07;9.20;1.00
2463;DHT22;1243;54.298;10.172;2023-04-25T10:33:38;9.70;1.00
2463;DHT22;1243;54.298;10.172;2023-04-25T10:36:17;10.10;1.00
2463;DHT22;1243;54.298;10.172;2023-04-25T10:38:44;10.00;1.00
2463;DHT22;1243;54.298;10.172;2023-04-25T10:41:11;9.60;1.00
2463;DHT22;1243;54.298;10.172;2023-04-25T10:43:42;9.20;1.00
2463;DHT22;1243;54.298;10.172;2023-04-25T10:46:28;9.00;1.00
2463;DHT22;1243;54.298;10.172;2023-04-25T10:48:58;8.90;1.00
2463;DHT22;1243;54.298;10.172;2023-04-25T10:54:08;9.20;1.00
2463;DHT22;1243;54.298;10.172;2023-04-25T10:56:37;9.50;1.00
2463;DHT22;1243;54.298;10.172;2023-04-25T10:59:08;9.60;1.00
2463;DHT22;1243;54.298;10.172;2023-04-25T11:01:46;10.10;1.00
2463;DHT22;1243;54.298;10.172;2023-04-25T11:04:32;10.80;1.00
2463;DHT22;1243;54.298;10.172;2023-04-25T11:07:10;11.60;1.00
2463;DHT22;1243;54.298;10.172;2023-04-25T11:09:40;12.10;1.00
2463;DHT22;1243;54.298;10.172;2023-04-25T11:12:08;12.60;1.00
2463;DHT22;1243;54.298;10.172;2023-04-25T11:14:35;12.50;1.00
2463;DHT22;1243;54.298;10.172;2023-04-25T11:17:00;12.00;1.00
2463;DHT22;1243;54.298;10.172;2023-04-25T11:19:28;11.80;1.00
2463;DHT22;1243;54.298;10.172;2023-04-25T11:22:00;11.30;1.00
2463;DHT22;1243;54.298;10.172;2023-04-25T11:24:30;10.50;1.00
2463;DHT22;1243;54.298;10.172;2023-04-25T11:27:01;9.60;1.00
2463;DHT22;1243;54.298;10.172;2023-04-25T11:29:31;9.30;1.00
2463;DHT22;1243;54.298;10.172;2023-04-25T11:31:57;9.10;1.00
2463;DHT22;1243;54.298;10.172;2023-04-25T11:34:24;9.20;1.00
2463;DHT22;1243;54.298;10.172;2023-04-25T11:36:51;9.40;1.00
2463;DHT22;1243;54.298;10.172;2023-04-25T11:39:20;9.70;1.00
2463;DHT22;1243;54.298;10.172;2023-04-25T11:41:46;10.50;1.00
2463;DHT22;1243;54.298;10.172;2023-04-25T11:44:15;11.10;1.00
2463;DHT22;1243;54.298;10.172;2023-04-25T11:46:42;11.40;1.00
2463;DHT22;1243;54.298;10.172;2023-04-25T11:49:08;12.10;1.00
2463;DHT22;1243;54.298;10.172;2023-04-25T11:51:45;12.90;1.00
2463;DHT22;1243;54.298;10.172;2023-04-25T11:54:12;13.40;1.00
2463;DHT22;1243;54.298;10.172;2023-04-25T11:56:43;13.00;1.00
2463;DHT22;1243;54.298;10.172;2023-04-25T11:59:09;12.90;1.00
2463;DHT22;1243;54.298;10.172;2023-04-25T12:01:37;12.80;1.00
2463;DHT22;1243;54.298;10.172;2023-04-25T12:04:23;12.00;1.00
2463;DHT22;1243;54.298;10.172;2023-04-25T12:06:52;11.50;1.00
2463;DHT22;1243;54.298;10.172;2023-04-25T12:09:19;10.60;1.00
2463;DHT22;1243;54.298;10.172;2023-04-25T12:11:54;10.10;1.00
2463;DHT22;1243;54.298;10.172;2023-04-25T12:14:27;9.60;1.00
2463;DHT22;1243;54.298;10.172;2023-04-25T12:16:55;9.30;1.00
2463;DHT22;1243;54.298;10.172;2023-04-25T12:19:23;9.20;1.00
2463;DHT22;1243;54.298;10.172;2023-04-25T12:21:49;9.10;1.00
2463;DHT22;1243;54.298;10.172;2023-04-25T12:24:17;9.10;1.00
2463;DHT22;1243;54.298;10.172;2023-04-25T12:27:06;9.50;1.00
2463;DHT22;1243;54.298;10.172;2023-04-25T12:29:34;10.30;1.00
2463;DHT22;1243;54.298;10.172;2023-04-25T12:32:00;10.30;1.00
2463;DHT22;1243;54.298;10.172;2023-04-25T12:34:27;9.90;1.00
2463;DHT22;1243;54.298;10.172;2023-04-25T12:36:54;9.70;1.00
2463;DHT22;1243;54.298;10.172;2023-04-25T12:39:22;9.50;1.00
2463;DHT22;1243;54.298;10.172;2023-04-25T12:41:49;9.50;1.00
2463;DHT22;1243;54.298;10.172;2023-04-25T12:44:15;9.40;1.00
2463;DHT22;1243;54.298;10.172;2023-04-25T12:46:41;9.40;1.00
2463;DHT22;1243;54.298;10.172;2023-04-25T12:49:08;10.10;1.00
2463;DHT22;1243;54.298;10.172;2023-04-25T12:51:37;10.80;1.00
2463;DHT22;1243;54.298;10.172;2023-04-25T12:54:04;11.00;1.00
2463;DHT22;1243;54.298;10.172;2023-04-25T12:56:30;10.90;1.00
2463;DHT22;1243;54.298;10.172;2023-04-25T12:58:57;10.40;1.00
2463;DHT22;1243;54.298;10.172;2023-04-25T13:01:23;9.80;1.00
2463;DHT22;1243;54.298;10.172;2023-04-25T13:03:49;9.40;1.00
2463;DHT22;1243;54.298;10.172;2023-04-25T13:06:16;9.30;1.00
2463;DHT22;1243;54.298;10.172;2023-04-25T13:08:42;9.10;1.00
2463;DHT22;1243;54.298;10.172;2023-04-25T13:11:08;9.20;1.00
2463;DHT22;1243;54.298;10.172;2023-04-25T13:13:33;9.20;1.00
2463;DHT22;1243;54.298;10.172;2023-04-25T13:16:03;9.90;1.00
2463;DHT22;1243;54.298;10.172;2023-04-25T13:18:30;10.80;1.00
2463;DHT22;1243;54.298;10.172;2023-04-25T13:20:58;11.50;1.00
2463;DHT22;1243;54.298;10.172;2023-04-25T13:23:28;11.80;1.00
2463;DHT22;1243;54.298;10.172;2023-04-25T13:25:55;11.90;1.00
2463;DHT22;1243;54.298;10.172;2023-04-25T13:28:26;12.20;1.00
2463;DHT22;1243;54.298;10.172;2023-04-25T13:30:51;12.30;1.00
2463;DHT22;1243;54.298;10.172;2023-04-25T13:33:18;12.50;1.00
2463;DHT22;1243;54.298;10.172;2023-04-25T13:35:44;13.00;1.00
2463;DHT22;1243;54.298;10.172;2023-04-25T13:38:25;13.50;1.00
2463;DHT22;1243;54.298;10.172;2023-04-25T13:40:51;13.40;1.00
2463;DHT22;1243;54.298;10.172;2023-04-25T13:43:18;12.60;1.00
2463;DHT22;1243;54.298;10.172;2023-04-25T13:45:44;11.80;1.00
2463;DHT22;1243;54.298;10.172;2023-04-25T13:48:10;11.30;1.00
2463;DHT22;1243;54.298;10.172;2023-04-25T13:50:35;11.00;1.00
2463;DHT22;1243;54.298;10.172;2023-04-25T13:53:01;10.40;1.00
2463;DHT22;1243;54.298;10.172;2023-04-25T13:55:27;9.90;1.00
2463;DHT22;1243;54.298;10.172;2023-04-25T13:57:52;9.60;1.00
2463;DHT22;1243;54.298;10.172;2023-04-25T14:00:18;9.70;1.00
2463;DHT22;1243;54.298;10.172;2023-04-25T14:02:45;9.50;1.00
2463;DHT22;1243;54.298;10.172;2023-04-25T14:05:11;9.50;1.00
2463;DHT22;1243;54.298;10.172;2023-04-25T14:07:36;9.40;1.00
2463;DHT22;1243;54.298;10.172;2023-04-25T14:10:03;9.20;1.00
2463;DHT22;1243;54.298;10.172;2023-04-25T14:12:30;9.20;1.00
2463;DHT22;1243;54.298;10.172;2023-04-25T14:14:56;9.00;1.00
2463;DHT22;1243;54.298;10.172;2023-04-25T14:17:22;8.80;1.00
2463;DHT22;1243;54.298;10.172;2023-04-25T14:19:49;8.80;1.00
2463;DHT22;1243;54.298;10.172;2023-04-25T14:22:15;8.70;1.00
2463;DHT22;1243;54.298;10.172;2023-04-25T14:24:41;8.70;1.00
2463;DHT22;1243;54.298;10.172;2023-04-25T14:27:07;8.70;1.00
2463;DHT22;1243;54.298;10.172;2023-04-25T14:29:33;8.50;1.00
2463;DHT22;1243;54.298;10.172;2023-04-25T14:31:58;8.20;1.00
2463;DHT22;1243;54.298;10.172;2023-04-25T14:34:25;7.90;1.00
2463;DHT22;1243;54.298;10.172;2023-04-25T14:36:51;7.70;1.00
2463;DHT22;1243;54.298;10.172;2023-04-25T14:39:18;7.60;1.00
2463;DHT22;1243;54.298;10.172;2023-04-25T14:41:44;7.50;1.00
2463;DHT22;1243;54.298;10.172;2023-04-25T14:44:09;7.40;1.00
2463;DHT22;1243;54.298;10.172;2023-04-25T14:46:35;7.50;1.00
2463;DHT22;1243;54.298;10.172;2023-04-25T14:49:04;7.60;1.00
2463;DHT22;1243;54.298;10.172;2023-04-25T14:51:30;7.70;1.00
2463;DHT22;1243;54.298;10.172;2023-04-25T14:53:56;8.20;1.00
2463;DHT22;1243;54.298;10.172;2023-04-25T14:56:22;8.80;1.00
2463;DHT22;1243;54.298;10.172;2023-04-25T14:58:48;9.40;1.00
2463;DHT22;1243;54.298;10.172;2023-04-25T15:01:14;9.80;1.00
2463;DHT22;1243;54.298;10.172;2023-04-25T15:03:40;10.10;1.00
2463;DHT22;1243;54.298;10.172;2023-04-25T15:06:06;10.50;1.00
2463;DHT22;1243;54.298;10.172;2023-04-25T15:08:32;10.80;1.00
2463;DHT22;1243;54.298;10.172;2023-04-25T15:11:00;11.00;1.00
2463;DHT22;1243;54.298;10.172;2023-04-25T15:13:27;11.20;1.00
2463;DHT22;1243;54.298;10.172;2023-04-25T15:15:53;10.80;1.00
2463;DHT22;1243;54.298;10.172;2023-04-25T15:18:22;10.50;1.00
2463;DHT22;1243;54.298;10.172;2023-04-25T15:20:50;10.30;1.00
2463;DHT22;1243;54.298;10.172;2023-04-25T15:23:17;10.10;1.00
2463;DHT22;1243;54.298;10.172;2023-04-25T15:25:43;9.90;1.00
2463;DHT22;1243;54.298;10.172;2023-04-25T15:28:09;9.60;1.00
2463;DHT22;1243;54.298;10.172;2023-04-25T15:30:35;9.50;1.00
2463;DHT22;1243;54.298;10.172;2023-04-25T15:33:00;9.40;1.00
2463;DHT22;1243;54.298;10.172;2023-04-25T15:35:26;9.30;1.00
2463;DHT22;1243;54.298;10.172;2023-04-25T15:37:52;9.20;1.00
2463;DHT22;1243;54.298;10.172;2023-04-25T15:40:17;9.10;1.00
2463;DHT22;1243;54.298;10.172;2023-04-25T15:42:50;9.10;1.00
2463;DHT22;1243;54.298;10.172;2023-04-25T15:45:17;9.20;1.00
2463;DHT22;1243;54.298;10.172;2023-04-25T15:47:44;9.20;1.00
2463;DHT22;1243;54.298;10.172;2023-04-25T15:50:10;9.30;1.00
2463;DHT22;1243;54.298;10.172;2023-04-25T15:52:37;9.50;1.00
2463;DHT22;1243;54.298;10.172;2023-04-25T15:55:04;10.00;1.00
2463;DHT22;1243;54.298;10.172;2023-04-25T15:57:32;10.30;1.00
2463;DHT22;1243;54.298;10.172;2023-04-25T15:59:58;10.70;1.00
2463;DHT22;1243;54.298;10.172;2023-04-25T16:02:24;10.40;1.00
2463;DHT22;1243;54.298;10.172;2023-04-25T16:04:50;10.10;1.00
2463;DHT22;1243;54.298;10.172;2023-04-25T16:07:16;10.00;1.00
2463;DHT22;1243;54.298;10.172;2023-04-25T16:09:42;9.90;1.00
2463;DHT22;1243;54.298;10.172;2023-04-25T16:12:10;9.80;1.00
2463;DHT22;1243;54.298;10.172;2023-04-25T16:14:36;9.50;1.00
2463;DHT22;1243;54.298;10.172;2023-04-25T16:17:02;9.30;1.00
2463;DHT22;1243;54.298;10.172;2023-04-25T16:19:27;9.10;1.00
2463;DHT22;1243;54.298;10.172;2023-04-25T16:21:53;8.90;1.00
2463;DHT22;1243;54.298;10.172;2023-04-25T16:24:19;8.80;1.00
2463;DHT22;1243;54.298;10.172;2023-04-25T16:26:45;8.70;1.00
2463;DHT22;1243;54.298;10.172;2023-04-25T16:29:10;8.60;1.00
2463;DHT22;1243;54.298;10.172;2023-04-25T16:31:37;8.50;1.00
2463;DHT22;1243;54.298;10.172;2023-04-25T16:34:03;8.30;1.00
2463;DHT22;1243;54.298;10.172;2023-04-25T16:36:29;8.20;1.00
2463;DHT22;1243;54.298;10.172;2023-04-25T16:38:57;7.90;1.00
2463;DHT22;1243;54.298;10.172;2023-04-25T16:41:23;7.80;1.00